Overview Statistics Trail Chart Weather Telemetry Raw packets
 

This is the latest recevied weather packets stored in our database for station/object DF1GD-10. If no packets are shown the sender has not sent any weather packets the latest 10 day(s).

<< 15 16 17 18 19 20 21 >>
Time Temp. Humidity Pressure Rain* Wind** Luminosity Snow
1788334082 13.33° C 63% 1020.9 hPa - - - -
1788333182 13.33° C 64% 1020.7 hPa - - - -
1788332282 12.22° C 68% 1020.6 hPa - - - -
1788331381 11.11° C 70% 1020.5 hPa - - - -
1788330481 11.11° C 70% 1020.5 hPa - - - -
1788329581 11.11° C 68% 1020.5 hPa - - - -
1788328680 11.11° C 66% 1020.5 hPa - - - -
1788327780 11.67° C 63% 1020.6 hPa - - - -
1788326880 11.67° C 64% 1020.4 hPa - - - -
1788325980 11.67° C 64% 1020.4 hPa - - - -
1788325080 11.67° C 64% 1020.4 hPa - - - -
1788324185 11.11° C 67% 1020.3 hPa - - - -
1788323279 11.11° C 68% 1020.1 hPa - - - -
1788322379 11.67° C 66% 1020.2 hPa - - - -
1788321479 11.67° C 67% 1020.2 hPa - - - -
1788320579 11.67° C 69% 1020.2 hPa - - - -
1788319679 11.67° C 66% 1020.1 hPa - - - -
1788318779 11.67° C 67% 1020.1 hPa - - - -
1788317879 11.67° C 68% 1020.1 hPa - - - -
1788316978 12.22° C 64% 1020.3 hPa - - - -
1788316078 12.22° C 64% 1020.2 hPa - - - -
1788315178 12.22° C 63% 1020.2 hPa - - - -
1788314278 12.78° C 61% 1020 hPa - - - -
1788313378 13.33° C 60% 1019.9 hPa - - - -
1788312478 13.33° C 59% 1020.1 hPa - - - -

* Rain since midnight (hover to see other rain measurements)
** Current wind speed in m/s (hover to see current wind gust speed)